sensor_id;sensor_type;location;lat;lon;timestamp;P1;durP1;ratioP1;P2;durP2;ratioP2
39898;SDS011;25571;47.876;10.642;2023-04-24T00:00:32;1.38;;;0.30;;
39898;SDS011;25571;47.876;10.642;2023-04-24T00:02:57;0.30;;;0.30;;
39898;SDS011;25571;47.876;10.642;2023-04-24T00:05:24;1.30;;;0.30;;
39898;SDS011;25571;47.876;10.642;2023-04-24T00:07:50;0.90;;;0.20;;
39898;SDS011;25571;47.876;10.642;2023-04-24T00:12:44;0.17;;;0.17;;
39898;SDS011;25571;47.876;10.642;2023-04-24T00:15:10;0.20;;;0.20;;
39898;SDS011;25571;47.876;10.642;2023-04-24T00:17:36;0.88;;;0.20;;
39898;SDS011;25571;47.876;10.642;2023-04-24T00:20:01;2.55;;;0.52;;
39898;SDS011;25571;47.876;10.642;2023-04-24T00:22:30;0.52;;;0.22;;
39898;SDS011;25571;47.876;10.642;2023-04-24T00:24:56;0.28;;;0.28;;
39898;SDS011;25571;47.876;10.642;2023-04-24T00:27:21;0.98;;;0.30;;
39898;SDS011;25571;47.876;10.642;2023-04-24T00:29:48;0.20;;;0.20;;
39898;SDS011;25571;47.876;10.642;2023-04-24T00:32:13;0.30;;;0.30;;
39898;SDS011;25571;47.876;10.642;2023-04-24T00:34:39;0.80;;;0.10;;
39898;SDS011;25571;47.876;10.642;2023-04-24T00:37:05;0.52;;;0.30;;
39898;SDS011;25571;47.876;10.642;2023-04-24T00:39:31;0.30;;;0.30;;
39898;SDS011;25571;47.876;10.642;2023-04-24T00:41:57;0.38;;;0.38;;
39898;SDS011;25571;47.876;10.642;2023-04-24T00:44:22;0.43;;;0.30;;
39898;SDS011;25571;47.876;10.642;2023-04-24T00:46:48;0.20;;;0.20;;
39898;SDS011;25571;47.876;10.642;2023-04-24T00:49:19;1.75;;;0.30;;
39898;SDS011;25571;47.876;10.642;2023-04-24T00:51:46;0.30;;;0.17;;
39898;SDS011;25571;47.876;10.642;2023-04-24T00:54:14;0.57;;;0.30;;
39898;SDS011;25571;47.876;10.642;2023-04-24T00:56:41;0.10;;;0.10;;
39898;SDS011;25571;47.876;10.642;2023-04-24T00:59:07;0.30;;;0.20;;
39898;SDS011;25571;47.876;10.642;2023-04-24T01:01:33;0.32;;;0.20;;
39898;SDS011;25571;47.876;10.642;2023-04-24T01:03:59;0.32;;;0.20;;
39898;SDS011;25571;47.876;10.642;2023-04-24T01:06:27;0.20;;;0.20;;
39898;SDS011;25571;47.876;10.642;2023-04-24T01:08:54;0.15;;;0.15;;
39898;SDS011;25571;47.876;10.642;2023-04-24T01:11:20;0.20;;;0.20;;
39898;SDS011;25571;47.876;10.642;2023-04-24T01:13:47;0.30;;;0.30;;
39898;SDS011;25571;47.876;10.642;2023-04-24T01:16:13;0.22;;;0.22;;
39898;SDS011;25571;47.876;10.642;2023-04-24T01:18:40;0.40;;;0.30;;
39898;SDS011;25571;47.876;10.642;2023-04-24T01:21:06;1.05;;;0.20;;
39898;SDS011;25571;47.876;10.642;2023-04-24T01:23:34;0.20;;;0.20;;
39898;SDS011;25571;47.876;10.642;2023-04-24T01:25:59;0.20;;;0.20;;
39898;SDS011;25571;47.876;10.642;2023-04-24T01:28:25;0.15;;;0.15;;
39898;SDS011;25571;47.876;10.642;2023-04-24T01:30:52;0.32;;;0.20;;
39898;SDS011;25571;47.876;10.642;2023-04-24T01:33:18;0.28;;;0.28;;
39898;SDS011;25571;47.876;10.642;2023-04-24T01:35:46;0.20;;;0.20;;
39898;SDS011;25571;47.876;10.642;2023-04-24T01:38:12;0.20;;;0.20;;
39898;SDS011;25571;47.876;10.642;2023-04-24T01:40:37;1.27;;;0.38;;
39898;SDS011;25571;47.876;10.642;2023-04-24T01:43:03;0.45;;;0.25;;
39898;SDS011;25571;47.876;10.642;2023-04-24T01:45:29;0.17;;;0.17;;
39898;SDS011;25571;47.876;10.642;2023-04-24T01:47:54;1.05;;;0.40;;
39898;SDS011;25571;47.876;10.642;2023-04-24T01:50:21;0.20;;;0.17;;
39898;SDS011;25571;47.876;10.642;2023-04-24T01:52:46;0.52;;;0.20;;
39898;SDS011;25571;47.876;10.642;2023-04-24T01:55:12;0.25;;;0.20;;
39898;SDS011;25571;47.876;10.642;2023-04-24T01:57:38;0.38;;;0.20;;
39898;SDS011;25571;47.876;10.642;2023-04-24T02:00:03;0.20;;;0.20;;
39898;SDS011;25571;47.876;10.642;2023-04-24T02:02:30;0.85;;;0.30;;
39898;SDS011;25571;47.876;10.642;2023-04-24T02:04:56;0.93;;;0.30;;
39898;SDS011;25571;47.876;10.642;2023-04-24T02:07:22;0.15;;;0.15;;
39898;SDS011;25571;47.876;10.642;2023-04-24T02:09:48;0.20;;;0.20;;
39898;SDS011;25571;47.876;10.642;2023-04-24T02:12:14;0.80;;;0.20;;
39898;SDS011;25571;47.876;10.642;2023-04-24T02:14:40;0.47;;;0.15;;
39898;SDS011;25571;47.876;10.642;2023-04-24T02:17:07;0.10;;;0.10;;
39898;SDS011;25571;47.876;10.642;2023-04-24T02:19:32;0.10;;;0.10;;
39898;SDS011;25571;47.876;10.642;2023-04-24T02:21:58;1.27;;;0.20;;
39898;SDS011;25571;47.876;10.642;2023-04-24T02:24:24;0.17;;;0.17;;
39898;SDS011;25571;47.876;10.642;2023-04-24T02:26:49;0.17;;;0.17;;
39898;SDS011;25571;47.876;10.642;2023-04-24T02:29:15;0.30;;;0.20;;
39898;SDS011;25571;47.876;10.642;2023-04-24T02:31:41;0.20;;;0.20;;
39898;SDS011;25571;47.876;10.642;2023-04-24T02:34:06;0.30;;;0.20;;
39898;SDS011;25571;47.876;10.642;2023-04-24T02:36:32;0.20;;;0.20;;
39898;SDS011;25571;47.876;10.642;2023-04-24T02:38:57;0.28;;;0.28;;
39898;SDS011;25571;47.876;10.642;2023-04-24T02:41:23;1.75;;;0.25;;
39898;SDS011;25571;47.876;10.642;2023-04-24T02:43:48;0.30;;;0.30;;
39898;SDS011;25571;47.876;10.642;2023-04-24T02:46:14;0.17;;;0.15;;
39898;SDS011;25571;47.876;10.642;2023-04-24T02:48:40;0.40;;;0.20;;
39898;SDS011;25571;47.876;10.642;2023-04-24T02:51:05;0.55;;;0.22;;
39898;SDS011;25571;47.876;10.642;2023-04-24T02:53:31;0.20;;;0.20;;
39898;SDS011;25571;47.876;10.642;2023-04-24T02:55:57;0.17;;;0.17;;
39898;SDS011;25571;47.876;10.642;2023-04-24T02:58:23;0.32;;;0.20;;
39898;SDS011;25571;47.876;10.642;2023-04-24T03:00:48;0.20;;;0.20;;
39898;SDS011;25571;47.876;10.642;2023-04-24T03:03:17;1.75;;;0.32;;
39898;SDS011;25571;47.876;10.642;2023-04-24T03:05:43;0.63;;;0.20;;
39898;SDS011;25571;47.876;10.642;2023-04-24T03:08:09;0.15;;;0.15;;
39898;SDS011;25571;47.876;10.642;2023-04-24T03:10:35;0.20;;;0.20;;
39898;SDS011;25571;47.876;10.642;2023-04-24T03:13:00;0.20;;;0.20;;
39898;SDS011;25571;47.876;10.642;2023-04-24T03:15:26;0.47;;;0.30;;
39898;SDS011;25571;47.876;10.642;2023-04-24T03:17:52;0.10;;;0.10;;
39898;SDS011;25571;47.876;10.642;2023-04-24T03:20:17;0.28;;;0.20;;
39898;SDS011;25571;47.876;10.642;2023-04-24T03:22:43;0.20;;;0.20;;
39898;SDS011;25571;47.876;10.642;2023-04-24T03:25:09;0.28;;;0.28;;
39898;SDS011;25571;47.876;10.642;2023-04-24T03:27:35;0.68;;;0.40;;
39898;SDS011;25571;47.876;10.642;2023-04-24T03:30:00;0.40;;;0.30;;
39898;SDS011;25571;47.876;10.642;2023-04-24T03:32:27;1.35;;;0.20;;
39898;SDS011;25571;47.876;10.642;2023-04-24T03:34:52;0.75;;;0.20;;
39898;SDS011;25571;47.876;10.642;2023-04-24T03:37:18;0.45;;;0.22;;
39898;SDS011;25571;47.876;10.642;2023-04-24T03:39:44;0.10;;;0.10;;
39898;SDS011;25571;47.876;10.642;2023-04-24T03:42:10;0.55;;;0.30;;
39898;SDS011;25571;47.876;10.642;2023-04-24T03:44:35;0.25;;;0.20;;
39898;SDS011;25571;47.876;10.642;2023-04-24T03:47:01;0.30;;;0.10;;
39898;SDS011;25571;47.876;10.642;2023-04-24T03:49:27;0.20;;;0.20;;
39898;SDS011;25571;47.876;10.642;2023-04-24T03:51:52;0.35;;;0.20;;
39898;SDS011;25571;47.876;10.642;2023-04-24T03:54:18;1.30;;;0.28;;
39898;SDS011;25571;47.876;10.642;2023-04-24T03:56:44;1.33;;;0.30;;
39898;SDS011;25571;47.876;10.642;2023-04-24T03:59:10;0.20;;;0.20;;
39898;SDS011;25571;47.876;10.642;2023-04-24T04:01:36;0.20;;;0.20;;
39898;SDS011;25571;47.876;10.642;2023-04-24T04:04:02;0.43;;;0.30;;
39898;SDS011;25571;47.876;10.642;2023-04-24T04:06:29;0.20;;;0.17;;
39898;SDS011;25571;47.876;10.642;2023-04-24T04:08:55;0.35;;;0.25;;
39898;SDS011;25571;47.876;10.642;2023-04-24T04:11:22;0.20;;;0.20;;
39898;SDS011;25571;47.876;10.642;2023-04-24T04:13:48;0.20;;;0.20;;
39898;SDS011;25571;47.876;10.642;2023-04-24T04:16:13;0.20;;;0.20;;
39898;SDS011;25571;47.876;10.642;2023-04-24T04:18:41;0.25;;;0.22;;
39898;SDS011;25571;47.876;10.642;2023-04-24T04:21:07;0.57;;;0.20;;
39898;SDS011;25571;47.876;10.642;2023-04-24T04:23:33;0.20;;;0.20;;
39898;SDS011;25571;47.876;10.642;2023-04-24T04:25:58;0.20;;;0.20;;
39898;SDS011;25571;47.876;10.642;2023-04-24T04:28:24;0.30;;;0.22;;
39898;SDS011;25571;47.876;10.642;2023-04-24T04:30:50;0.20;;;0.20;;
39898;SDS011;25571;47.876;10.642;2023-04-24T04:33:19;0.20;;;0.20;;
39898;SDS011;25571;47.876;10.642;2023-04-24T04:35:45;2.00;;;0.52;;
39898;SDS011;25571;47.876;10.642;2023-04-24T04:38:13;0.40;;;0.30;;
39898;SDS011;25571;47.876;10.642;2023-04-24T04:40:40;1.27;;;0.28;;
39898;SDS011;25571;47.876;10.642;2023-04-24T04:43:05;0.20;;;0.20;;
39898;SDS011;25571;47.876;10.642;2023-04-24T04:45:31;0.38;;;0.28;;
39898;SDS011;25571;47.876;10.642;2023-04-24T04:47:57;0.28;;;0.13;;
39898;SDS011;25571;47.876;10.642;2023-04-24T04:50:25;0.50;;;0.20;;
39898;SDS011;25571;47.876;10.642;2023-04-24T04:52:51;0.15;;;0.15;;
39898;SDS011;25571;47.876;10.642;2023-04-24T04:55:17;0.40;;;0.30;;
39898;SDS011;25571;47.876;10.642;2023-04-24T04:57:45;0.35;;;0.20;;
39898;SDS011;25571;47.876;10.642;2023-04-24T05:00:13;0.13;;;0.13;;
39898;SDS011;25571;47.876;10.642;2023-04-24T05:02:40;0.63;;;0.10;;
39898;SDS011;25571;47.876;10.642;2023-04-24T05:05:06;0.10;;;0.10;;
39898;SDS011;25571;47.876;10.642;2023-04-24T05:07:32;0.17;;;0.17;;
39898;SDS011;25571;47.876;10.642;2023-04-24T05:09:58;0.10;;;0.10;;
39898;SDS011;25571;47.876;10.642;2023-04-24T05:12:23;0.30;;;0.10;;
39898;SDS011;25571;47.876;10.642;2023-04-24T05:14:49;0.10;;;0.10;;
39898;SDS011;25571;47.876;10.642;2023-04-24T05:17:15;0.10;;;0.10;;
39898;SDS011;25571;47.876;10.642;2023-04-24T05:19:41;0.10;;;0.10;;
39898;SDS011;25571;47.876;10.642;2023-04-24T05:22:07;0.20;;;0.20;;
39898;SDS011;25571;47.876;10.642;2023-04-24T05:24:34;0.10;;;0.10;;
39898;SDS011;25571;47.876;10.642;2023-04-24T05:27:00;0.90;;;0.20;;
39898;SDS011;25571;47.876;10.642;2023-04-24T05:29:27;0.32;;;0.10;;
39898;SDS011;25571;47.876;10.642;2023-04-24T05:31:53;0.10;;;0.10;;
39898;SDS011;25571;47.876;10.642;2023-04-24T05:34:18;0.15;;;0.15;;
39898;SDS011;25571;47.876;10.642;2023-04-24T05:36:44;0.90;;;0.20;;
39898;SDS011;25571;47.876;10.642;2023-04-24T05:39:10;0.30;;;0.20;;
39898;SDS011;25571;47.876;10.642;2023-04-24T05:41:35;0.93;;;0.20;;
39898;SDS011;25571;47.876;10.642;2023-04-24T05:44:01;0.15;;;0.15;;
39898;SDS011;25571;47.876;10.642;2023-04-24T05:46:26;0.25;;;0.20;;
39898;SDS011;25571;47.876;10.642;2023-04-24T05:48:52;1.00;;;0.20;;
39898;SDS011;25571;47.876;10.642;2023-04-24T05:51:17;0.13;;;0.13;;
39898;SDS011;25571;47.876;10.642;2023-04-24T05:53:43;0.47;;;0.20;;
39898;SDS011;25571;47.876;10.642;2023-04-24T05:56:08;1.17;;;0.40;;
39898;SDS011;25571;47.876;10.642;2023-04-24T05:58:34;0.30;;;0.20;;
39898;SDS011;25571;47.876;10.642;2023-04-24T06:01:00;0.22;;;0.22;;
39898;SDS011;25571;47.876;10.642;2023-04-24T06:03:26;0.35;;;0.10;;
39898;SDS011;25571;47.876;10.642;2023-04-24T06:05:52;0.35;;;0.30;;
39898;SDS011;25571;47.876;10.642;2023-04-24T06:08:18;0.20;;;0.20;;
39898;SDS011;25571;47.876;10.642;2023-04-24T06:10:44;0.25;;;0.22;;
39898;SDS011;25571;47.876;10.642;2023-04-24T06:13:10;0.20;;;0.20;;
39898;SDS011;25571;47.876;10.642;2023-04-24T06:15:36;0.20;;;0.20;;
39898;SDS011;25571;47.876;10.642;2023-04-24T06:18:02;0.15;;;0.15;;
39898;SDS011;25571;47.876;10.642;2023-04-24T06:20:28;0.20;;;0.20;;
39898;SDS011;25571;47.876;10.642;2023-04-24T06:22:53;0.30;;;0.30;;
39898;SDS011;25571;47.876;10.642;2023-04-24T06:25:19;0.17;;;0.17;;
39898;SDS011;25571;47.876;10.642;2023-04-24T06:27:45;0.45;;;0.30;;
39898;SDS011;25571;47.876;10.642;2023-04-24T06:30:11;0.13;;;0.13;;
39898;SDS011;25571;47.876;10.642;2023-04-24T06:32:37;0.20;;;0.20;;
39898;SDS011;25571;47.876;10.642;2023-04-24T06:35:02;1.23;;;0.25;;
39898;SDS011;25571;47.876;10.642;2023-04-24T06:37:29;0.50;;;0.30;;
39898;SDS011;25571;47.876;10.642;2023-04-24T06:39:54;0.15;;;0.15;;
39898;SDS011;25571;47.876;10.642;2023-04-24T06:42:20;0.20;;;0.20;;
39898;SDS011;25571;47.876;10.642;2023-04-24T06:44:46;0.10;;;0.10;;
39898;SDS011;25571;47.876;10.642;2023-04-24T06:47:12;0.20;;;0.20;;
39898;SDS011;25571;47.876;10.642;2023-04-24T06:49:38;0.90;;;0.20;;
39898;SDS011;25571;47.876;10.642;2023-04-24T06:52:05;0.30;;;0.22;;
39898;SDS011;25571;47.876;10.642;2023-04-24T06:54:31;0.10;;;0.10;;
39898;SDS011;25571;47.876;10.642;2023-04-24T06:56:57;0.52;;;0.20;;
39898;SDS011;25571;47.876;10.642;2023-04-24T06:59:24;0.45;;;0.20;;
39898;SDS011;25571;47.876;10.642;2023-04-24T07:01:49;0.38;;;0.20;;
39898;SDS011;25571;47.876;10.642;2023-04-24T07:04:18;0.98;;;0.30;;
39898;SDS011;25571;47.876;10.642;2023-04-24T07:06:47;0.32;;;0.13;;
39898;SDS011;25571;47.876;10.642;2023-04-24T07:09:16;0.75;;;0.50;;
39898;SDS011;25571;47.876;10.642;2023-04-24T07:11:43;0.25;;;0.20;;
39898;SDS011;25571;47.876;10.642;2023-04-24T07:14:09;0.47;;;0.20;;
39898;SDS011;25571;47.876;10.642;2023-04-24T07:16:35;0.40;;;0.10;;
39898;SDS011;25571;47.876;10.642;2023-04-24T07:19:01;0.10;;;0.10;;
39898;SDS011;25571;47.876;10.642;2023-04-24T07:21:26;0.10;;;0.10;;
39898;SDS011;25571;47.876;10.642;2023-04-24T07:23:52;0.68;;;0.32;;
39898;SDS011;25571;47.876;10.642;2023-04-24T07:26:19;0.13;;;0.13;;
39898;SDS011;25571;47.876;10.642;2023-04-24T07:28:45;0.55;;;0.30;;
39898;SDS011;25571;47.876;10.642;2023-04-24T07:31:11;0.25;;;0.25;;
39898;SDS011;25571;47.876;10.642;2023-04-24T07:33:37;1.10;;;0.40;;
39898;SDS011;25571;47.876;10.642;2023-04-24T07:36:03;1.00;;;0.32;;
39898;SDS011;25571;47.876;10.642;2023-04-24T07:38:31;0.85;;;0.43;;
39898;SDS011;25571;47.876;10.642;2023-04-24T07:40:57;1.42;;;0.40;;
39898;SDS011;25571;47.876;10.642;2023-04-24T07:43:23;0.73;;;0.47;;
39898;SDS011;25571;47.876;10.642;2023-04-24T07:45:49;2.45;;;0.63;;
39898;SDS011;25571;47.876;10.642;2023-04-24T07:48:15;0.82;;;0.47;;
39898;SDS011;25571;47.876;10.642;2023-04-24T07:50:42;0.60;;;0.55;;
39898;SDS011;25571;47.876;10.642;2023-04-24T07:53:09;0.57;;;0.52;;
39898;SDS011;25571;47.876;10.642;2023-04-24T07:55:35;0.52;;;0.52;;
39898;SDS011;25571;47.876;10.642;2023-04-24T07:58:00;0.50;;;0.50;;
39898;SDS011;25571;47.876;10.642;2023-04-24T08:00:26;0.40;;;0.40;;
39898;SDS011;25571;47.876;10.642;2023-04-24T08:02:51;1.65;;;0.50;;
39898;SDS011;25571;47.876;10.642;2023-04-24T08:05:17;0.30;;;0.30;;
39898;SDS011;25571;47.876;10.642;2023-04-24T08:07:42;0.40;;;0.30;;
39898;SDS011;25571;47.876;10.642;2023-04-24T08:10:10;1.25;;;0.30;;
39898;SDS011;25571;47.876;10.642;2023-04-24T08:12:36;1.02;;;0.40;;
39898;SDS011;25571;47.876;10.642;2023-04-24T08:15:02;1.38;;;0.57;;
39898;SDS011;25571;47.876;10.642;2023-04-24T08:17:29;1.92;;;0.60;;
39898;SDS011;25571;47.876;10.642;2023-04-24T08:19:54;0.68;;;0.50;;
39898;SDS011;25571;47.876;10.642;2023-04-24T08:22:26;0.93;;;0.40;;
39898;SDS011;25571;47.876;10.642;2023-04-24T08:24:52;0.35;;;0.35;;
39898;SDS011;25571;47.876;10.642;2023-04-24T08:27:18;0.60;;;0.60;;
39898;SDS011;25571;47.876;10.642;2023-04-24T08:29:43;0.75;;;0.50;;
39898;SDS011;25571;47.876;10.642;2023-04-24T08:32:09;0.80;;;0.57;;
39898;SDS011;25571;47.876;10.642;2023-04-24T08:34:34;1.48;;;0.60;;
39898;SDS011;25571;47.876;10.642;2023-04-24T08:37:00;0.75;;;0.60;;
39898;SDS011;25571;47.876;10.642;2023-04-24T08:39:26;0.40;;;0.40;;
39898;SDS011;25571;47.876;10.642;2023-04-24T08:41:52;0.73;;;0.57;;
39898;SDS011;25571;47.876;10.642;2023-04-24T08:44:18;2.22;;;0.50;;
39898;SDS011;25571;47.876;10.642;2023-04-24T08:46:45;0.52;;;0.50;;
39898;SDS011;25571;47.876;10.642;2023-04-24T08:49:13;0.50;;;0.50;;
39898;SDS011;25571;47.876;10.642;2023-04-24T08:51:41;1.35;;;0.73;;
39898;SDS011;25571;47.876;10.642;2023-04-24T08:54:07;2.65;;;1.02;;
39898;SDS011;25571;47.876;10.642;2023-04-24T08:56:33;0.73;;;0.70;;
39898;SDS011;25571;47.876;10.642;2023-04-24T08:59:03;0.77;;;0.75;;
39898;SDS011;25571;47.876;10.642;2023-04-24T09:01:29;1.20;;;0.77;;
39898;SDS011;25571;47.876;10.642;2023-04-24T09:03:58;1.52;;;0.73;;
39898;SDS011;25571;47.876;10.642;2023-04-24T09:06:29;1.33;;;0.47;;
39898;SDS011;25571;47.876;10.642;2023-04-24T09:08:57;1.23;;;0.50;;
39898;SDS011;25571;47.876;10.642;2023-04-24T09:11:28;3.13;;;0.63;;
39898;SDS011;25571;47.876;10.642;2023-04-24T09:13:55;1.35;;;0.73;;
39898;SDS011;25571;47.876;10.642;2023-04-24T09:16:21;0.77;;;0.60;;
39898;SDS011;25571;47.876;10.642;2023-04-24T09:18:49;1.38;;;0.60;;
39898;SDS011;25571;47.876;10.642;2023-04-24T09:21:15;1.48;;;0.70;;
39898;SDS011;25571;47.876;10.642;2023-04-24T09:23:41;1.08;;;0.70;;
39898;SDS011;25571;47.876;10.642;2023-04-24T09:26:06;1.33;;;0.75;;
39898;SDS011;25571;47.876;10.642;2023-04-24T09:28:36;1.17;;;0.82;;
39898;SDS011;25571;47.876;10.642;2023-04-24T09:31:03;3.55;;;1.10;;
39898;SDS011;25571;47.876;10.642;2023-04-24T09:33:39;0.47;;;0.47;;
39898;SDS011;25571;47.876;10.642;2023-04-24T09:36:05;1.55;;;0.93;;
39898;SDS011;25571;47.876;10.642;2023-04-24T09:38:35;1.30;;;0.93;;
39898;SDS011;25571;47.876;10.642;2023-04-24T09:41:05;3.83;;;1.08;;
39898;SDS011;25571;47.876;10.642;2023-04-24T09:43:32;0.80;;;0.70;;
39898;SDS011;25571;47.876;10.642;2023-04-24T09:45:58;1.38;;;0.73;;
39898;SDS011;25571;47.876;10.642;2023-04-24T09:48:35;0.88;;;0.57;;
39898;SDS011;25571;47.876;10.642;2023-04-24T09:51:02;0.73;;;0.70;;
39898;SDS011;25571;47.876;10.642;2023-04-24T09:53:30;2.08;;;0.70;;
39898;SDS011;25571;47.876;10.642;2023-04-24T09:55:56;0.75;;;0.70;;
39898;SDS011;25571;47.876;10.642;2023-04-24T09:58:27;0.63;;;0.60;;
39898;SDS011;25571;47.876;10.642;2023-04-24T10:00:54;0.60;;;0.60;;
39898;SDS011;25571;47.876;10.642;2023-04-24T10:03:23;1.02;;;0.80;;
39898;SDS011;25571;47.876;10.642;2023-04-24T10:05:51;2.13;;;0.80;;
39898;SDS011;25571;47.876;10.642;2023-04-24T10:08:17;1.45;;;0.80;;
39898;SDS011;25571;47.876;10.642;2023-04-24T10:10:43;2.42;;;1.15;;
39898;SDS011;25571;47.876;10.642;2023-04-24T10:13:10;1.65;;;0.80;;
39898;SDS011;25571;47.876;10.642;2023-04-24T10:15:37;0.50;;;0.50;;
39898;SDS011;25571;47.876;10.642;2023-04-24T10:18:06;1.98;;;0.70;;
39898;SDS011;25571;47.876;10.642;2023-04-24T10:20:33;0.50;;;0.50;;
39898;SDS011;25571;47.876;10.642;2023-04-24T10:23:00;0.47;;;0.40;;
39898;SDS011;25571;47.876;10.642;2023-04-24T10:25:27;0.50;;;0.50;;
39898;SDS011;25571;47.876;10.642;2023-04-24T10:27:58;1.20;;;0.30;;
39898;SDS011;25571;47.876;10.642;2023-04-24T10:30:25;0.55;;;0.35;;
39898;SDS011;25571;47.876;10.642;2023-04-24T10:33:03;0.30;;;0.30;;
39898;SDS011;25571;47.876;10.642;2023-04-24T10:35:36;1.00;;;0.60;;
39898;SDS011;25571;47.876;10.642;2023-04-24T10:38:13;0.50;;;0.50;;
39898;SDS011;25571;47.876;10.642;2023-04-24T10:40:42;0.75;;;0.50;;
39898;SDS011;25571;47.876;10.642;2023-04-24T10:43:08;2.13;;;0.75;;
39898;SDS011;25571;47.876;10.642;2023-04-24T10:45:36;1.17;;;0.68;;
39898;SDS011;25571;47.876;10.642;2023-04-24T10:53:20;1.90;;;1.00;;
39898;SDS011;25571;47.876;10.642;2023-04-24T10:55:58;0.73;;;0.63;;
39898;SDS011;25571;47.876;10.642;2023-04-24T11:01:09;0.70;;;0.60;;
39898;SDS011;25571;47.876;10.642;2023-04-24T11:04:01;0.98;;;0.80;;
39898;SDS011;25571;47.876;10.642;2023-04-24T11:06:28;1.40;;;1.00;;
39898;SDS011;25571;47.876;10.642;2023-04-24T11:08:58;0.95;;;0.82;;
39898;SDS011;25571;47.876;10.642;2023-04-24T11:11:34;1.13;;;0.80;;
39898;SDS011;25571;47.876;10.642;2023-04-24T11:14:02;2.63;;;0.98;;
39898;SDS011;25571;47.876;10.642;2023-04-24T11:19:04;1.58;;;0.90;;
39898;SDS011;25571;47.876;10.642;2023-04-24T11:24:21;1.40;;;1.08;;
39898;SDS011;25571;47.876;10.642;2023-04-24T11:26:58;1.30;;;0.68;;
39898;SDS011;25571;47.876;10.642;2023-04-24T11:29:46;1.98;;;0.90;;
39898;SDS011;25571;47.876;10.642;2023-04-24T11:34:48;1.80;;;0.90;;
39898;SDS011;25571;47.876;10.642;2023-04-24T11:37:15;1.20;;;0.77;;
39898;SDS011;25571;47.876;10.642;2023-04-24T11:39:41;1.92;;;1.05;;
39898;SDS011;25571;47.876;10.642;2023-04-24T11:42:07;4.22;;;1.02;;
39898;SDS011;25571;47.876;10.642;2023-04-24T11:44:34;1.98;;;0.90;;
39898;SDS011;25571;47.876;10.642;2023-04-24T11:47:03;3.00;;;0.95;;
39898;SDS011;25571;47.876;10.642;2023-04-24T11:49:32;1.95;;;1.13;;
39898;SDS011;25571;47.876;10.642;2023-04-24T11:51:59;0.80;;;0.80;;
39898;SDS011;25571;47.876;10.642;2023-04-24T11:54:26;1.33;;;0.98;;
39898;SDS011;25571;47.876;10.642;2023-04-24T11:56:52;1.13;;;1.02;;
39898;SDS011;25571;47.876;10.642;2023-04-24T11:59:17;1.50;;;0.77;;
39898;SDS011;25571;47.876;10.642;2023-04-24T12:01:46;3.05;;;1.00;;
39898;SDS011;25571;47.876;10.642;2023-04-24T12:04:13;1.40;;;0.90;;
39898;SDS011;25571;47.876;10.642;2023-04-24T12:06:40;1.52;;;1.13;;
39898;SDS011;25571;47.876;10.642;2023-04-24T12:09:23;1.98;;;1.00;;
39898;SDS011;25571;47.876;10.642;2023-04-24T12:11:58;2.40;;;1.00;;
39898;SDS011;25571;47.876;10.642;2023-04-24T12:14:23;2.97;;;1.10;;
39898;SDS011;25571;47.876;10.642;2023-04-24T12:16:49;0.98;;;0.80;;
39898;SDS011;25571;47.876;10.642;2023-04-24T12:19:20;1.90;;;0.95;;
39898;SDS011;25571;47.876;10.642;2023-04-24T12:22:02;2.13;;;0.93;;
39898;SDS011;25571;47.876;10.642;2023-04-24T12:24:30;1.15;;;0.80;;
39898;SDS011;25571;47.876;10.642;2023-04-24T12:26:56;1.35;;;0.85;;
39898;SDS011;25571;47.876;10.642;2023-04-24T12:29:23;1.20;;;0.73;;
39898;SDS011;25571;47.876;10.642;2023-04-24T12:31:49;2.13;;;0.60;;
39898;SDS011;25571;47.876;10.642;2023-04-24T12:34:22;1.05;;;0.85;;
39898;SDS011;25571;47.876;10.642;2023-04-24T12:36:49;1.73;;;0.98;;
39898;SDS011;25571;47.876;10.642;2023-04-24T12:39:18;2.65;;;1.30;;
39898;SDS011;25571;47.876;10.642;2023-04-24T12:41:54;2.92;;;1.30;;
39898;SDS011;25571;47.876;10.642;2023-04-24T12:44:34;3.58;;;1.30;;
39898;SDS011;25571;47.876;10.642;2023-04-24T12:47:01;2.33;;;1.25;;
39898;SDS011;25571;47.876;10.642;2023-04-24T12:49:27;1.10;;;0.70;;
39898;SDS011;25571;47.876;10.642;2023-04-24T12:51:55;1.00;;;0.90;;
39898;SDS011;25571;47.876;10.642;2023-04-24T12:54:21;1.23;;;0.80;;
39898;SDS011;25571;47.876;10.642;2023-04-24T12:56:47;1.58;;;0.98;;
39898;SDS011;25571;47.876;10.642;2023-04-24T12:59:12;1.13;;;0.82;;
39898;SDS011;25571;47.876;10.642;2023-04-24T13:01:38;1.02;;;0.80;;
39898;SDS011;25571;47.876;10.642;2023-04-24T13:04:04;1.35;;;0.70;;
39898;SDS011;25571;47.876;10.642;2023-04-24T13:06:30;1.52;;;0.90;;
39898;SDS011;25571;47.876;10.642;2023-04-24T13:08:56;1.75;;;0.88;;
39898;SDS011;25571;47.876;10.642;2023-04-24T13:11:23;1.38;;;0.88;;
39898;SDS011;25571;47.876;10.642;2023-04-24T13:13:49;1.27;;;0.80;;
39898;SDS011;25571;47.876;10.642;2023-04-24T13:16:15;1.40;;;0.80;;
39898;SDS011;25571;47.876;10.642;2023-04-24T13:18:40;2.08;;;0.90;;
39898;SDS011;25571;47.876;10.642;2023-04-24T13:21:06;2.22;;;1.00;;
39898;SDS011;25571;47.876;10.642;2023-04-24T13:23:31;1.80;;;0.82;;
39898;SDS011;25571;47.876;10.642;2023-04-24T13:25:57;1.77;;;1.00;;
39898;SDS011;25571;47.876;10.642;2023-04-24T13:28:26;1.25;;;0.88;;
39898;SDS011;25571;47.876;10.642;2023-04-24T13:30:51;1.98;;;0.75;;
39898;SDS011;25571;47.876;10.642;2023-04-24T13:33:17;1.00;;;0.80;;
39898;SDS011;25571;47.876;10.642;2023-04-24T13:35:43;2.90;;;0.80;;
39898;SDS011;25571;47.876;10.642;2023-04-24T13:38:08;1.60;;;1.10;;
39898;SDS011;25571;47.876;10.642;2023-04-24T13:40:34;1.58;;;0.90;;
39898;SDS011;25571;47.876;10.642;2023-04-24T13:43:00;1.65;;;0.95;;
39898;SDS011;25571;47.876;10.642;2023-04-24T13:45:26;1.48;;;1.00;;
39898;SDS011;25571;47.876;10.642;2023-04-24T13:47:51;2.13;;;0.77;;
39898;SDS011;25571;47.876;10.642;2023-04-24T13:50:18;2.13;;;0.80;;
39898;SDS011;25571;47.876;10.642;2023-04-24T13:52:45;1.38;;;0.95;;
39898;SDS011;25571;47.876;10.642;2023-04-24T13:55:10;1.45;;;0.82;;
39898;SDS011;25571;47.876;10.642;2023-04-24T13:57:36;0.82;;;0.77;;
39898;SDS011;25571;47.876;10.642;2023-04-24T14:00:02;1.00;;;0.90;;
39898;SDS011;25571;47.876;10.642;2023-04-24T14:02:29;1.27;;;0.80;;
39898;SDS011;25571;47.876;10.642;2023-04-24T14:04:54;1.05;;;0.90;;
39898;SDS011;25571;47.876;10.642;2023-04-24T14:07:20;2.10;;;0.80;;
39898;SDS011;25571;47.876;10.642;2023-04-24T14:09:46;0.70;;;0.70;;
39898;SDS011;25571;47.876;10.642;2023-04-24T14:12:11;1.00;;;0.85;;
39898;SDS011;25571;47.876;10.642;2023-04-24T14:14:37;1.27;;;0.80;;
39898;SDS011;25571;47.876;10.642;2023-04-24T14:17:03;0.70;;;0.70;;
39898;SDS011;25571;47.876;10.642;2023-04-24T14:19:28;3.08;;;0.80;;
39898;SDS011;25571;47.876;10.642;2023-04-24T14:21:54;0.95;;;0.80;;
39898;SDS011;25571;47.876;10.642;2023-04-24T14:24:22;3.53;;;0.98;;
39898;SDS011;25571;47.876;10.642;2023-04-24T14:26:48;1.58;;;0.77;;
39898;SDS011;25571;47.876;10.642;2023-04-24T14:29:14;1.02;;;0.80;;
39898;SDS011;25571;47.876;10.642;2023-04-24T14:31:40;0.85;;;0.80;;
39898;SDS011;25571;47.876;10.642;2023-04-24T14:34:05;2.13;;;1.23;;
39898;SDS011;25571;47.876;10.642;2023-04-24T14:36:31;1.17;;;0.70;;
39898;SDS011;25571;47.876;10.642;2023-04-24T14:38:56;1.30;;;0.80;;
39898;SDS011;25571;47.876;10.642;2023-04-24T14:41:22;1.40;;;0.70;;
39898;SDS011;25571;47.876;10.642;2023-04-24T14:43:48;1.42;;;0.95;;
39898;SDS011;25571;47.876;10.642;2023-04-24T14:46:13;1.40;;;0.60;;
39898;SDS011;25571;47.876;10.642;2023-04-24T14:48:39;1.35;;;0.68;;